Latest Weather Observations for Cape Leeuwin

IDW60801

Issued at 10:33 am WST Sunday 19 April 2015 (issued every 30 minutes, with the page automatically refreshed every 10 minutes)

About weather observations | Map of weather stations | Latest weather observations for WA | Other Formats
Station Details ID: 009518 Name: CAPE LEEUWIN Lat: -34.37 Lon: 115.14 Height: 13.0 m
Data from the previous 72 hours. | See also: Recent months at Cape Leeuwin
Date/Time
WST
Temp
°C
App
Temp
°C
Dew
Point
Rel
Hum
%
Delta-T
°C
Wind Press
QNH
hPa
Press
MSL
hPa
Rain
since 9 am
mm
Dir
 
Spd
km/h
Gust
km/h
Spd
kts
Gust
kts
19/10:30am 20.7 14.3 12.1 58 4.8 NNE 37 50 20 27 1025.7 1025.7 0.0
19/10:00am 19.1 12.3 11.8 62 4.0 NNE 39 50 21 27 1025.8 1025.8 0.0
19/09:30am 18.0 10.3 11.6 66 3.5 NNE 43 54 23 29 1025.9 1025.9 0.0
19/09:00am 17.0 9.7 11.4 69 3.0 NNE 41 56 22 30 1026.0 1026.0 0.0
19/08:30am 16.2 8.3 11.3 73 2.6 NE 44 56 24 30 1026.0 1026.0 0.0
19/08:00am 15.5 7.6 11.4 76 2.2 NE 44 56 24 30 1025.8 1025.8 0.0
19/07:30am 15.1 7.2 11.3 78 2.0 NNE 44 56 24 30 1025.5 1025.5 0.0
19/07:00am 14.6 7.3 11.4 81 1.7 NE 41 52 22 28 1025.2 1025.2 0.0
19/06:30am 14.6 7.6 11.4 81 1.7 NE 39 48 21 26 1025.0 1025.0 0.0
19/06:00am 14.8 7.5 11.6 81 1.7 NE 41 50 22 27 1024.9 1024.9 0.0
19/05:30am 14.9 8.4 11.7 81 1.7 NE 37 46 20 25 1024.7 1024.7 0.0
19/05:00am 15.2 8.3 11.7 79 1.9 NE 39 52 21 28 1024.7 1024.7 0.0
19/04:30am 15.2 8.3 11.7 79 1.9 NE 39 48 21 26 1024.6 1024.6 0.0
19/04:00am 15.1 8.2 11.7 80 1.8 NE 39 50 21 27 1024.5 1024.5 0.0
19/03:30am 15.1 8.2 11.7 80 1.8 NE 39 48 21 26 1024.6 1024.6 0.0
19/03:00am 15.0 9.4 12.0 82 1.6 NE 33 43 18 23 1024.7 1024.7 0.0
19/02:30am 15.1 9.7 12.1 82 1.6 NE 32 41 17 22 1024.7 1024.7 0.0
19/02:00am 15.1 9.7 12.1 82 1.6 NE 32 39 17 21 1024.9 1024.9 0.0
19/01:30am 15.3 8.6 12.2 82 1.7 NE 39 46 21 25 1025.1 1025.1 0.0
19/01:00am 15.4 9.5 12.3 82 1.7 NE 35 43 19 23 1025.1 1025.1 0.0
19/12:30am 15.4 9.5 12.5 83 1.6 NE 35 41 19 22 1025.3 1025.3 0.0
19/12:00am 15.6 10.2 12.7 83 1.6 ENE 33 39 18 21 1025.3 1025.3 0.0
 
Date/Time
WST
Temp
°C
App
Temp
°C
Dew
Point
Rel
Hum
%
Delta-T
°C
Wind Press
QNH
hPa
Press
MSL
hPa
Rain
since 9 am
mm
Dir
 
Spd
km/h
Gust
km/h
Spd
kts
Gust
kts
18/11:30pm 16.0 10.2 12.7 81 1.8 NE 35 41 19 22 1025.3 1025.3 0.0
18/11:00pm 16.3 10.6 13.1 81 1.8 ENE 35 43 19 23 1025.5 1025.5 0.0
18/10:30pm 17.0 11.5 13.6 80 1.9 ENE 35 43 19 23 1025.7 1025.7 0.0
18/10:00pm 17.6 12.4 13.3 76 2.4 ENE 33 39 18 21 1025.8 1025.8 0.0
18/09:30pm 18.1 12.4 13.1 72 2.8 ENE 35 41 19 22 1026.0 1026.0 0.0
18/09:00pm 18.6 13.1 13.7 73 2.8 E 35 43 19 23 1026.0 1026.0 0.0
18/08:30pm 18.7 13.8 14.3 75 2.5 E 33 41 18 22 1025.8 1025.8 0.0
18/08:00pm 18.6 12.8 14.0 74 2.6 E 37 44 20 24 1025.6 1025.6 0.0
18/07:30pm 18.9 13.7 14.6 76 2.5 E 35 41 19 22 1025.4 1025.4 0.0
18/07:00pm 19.1 14.2 14.2 73 2.8 E 33 39 18 21 1025.1 1025.1 0.0
18/06:30pm 19.3 14.6 14.3 73 2.9 E 32 37 17 20 1024.8 1024.8 0.0
18/06:00pm 19.4 14.3 13.6 69 3.3 E 33 41 18 22 1024.5 1024.5 0.0
18/05:30pm 19.4 14.6 14.7 74 2.7 ESE 33 39 18 21 1024.2 1024.2 0.0
18/05:00pm 19.6 14.9 14.2 71 3.1 ESE 32 37 17 20 1024.2 1024.2 0.0
18/04:30pm 20.1 15.5 14.6 70 3.2 E 32 37 17 20 1024.3 1024.3 0.0
18/04:00pm 20.0 14.9 14.7 71 3.1 E 35 39 19 21 1024.3 1024.3 0.0
18/03:30pm 20.0 14.6 13.9 68 3.5 E 35 41 19 22 1024.1 1024.1 0.0
18/03:00pm 20.2 15.4 14.5 69 3.3 ESE 33 39 18 21 1024.1 1024.1 0.0
18/02:30pm 19.6 14.9 14.8 74 2.8 ESE 33 39 18 21 1024.2 1024.2 0.0
18/02:00pm 20.2 15.6 15.1 72 3.0 ESE 33 41 18 22 1024.3 1024.3 0.0
18/01:30pm 20.1 14.8 14.2 69 3.4 ESE 35 41 19 22 1024.3 1024.3 0.0
18/01:00pm 20.0 15.3 14.3 69 3.3 E 32 37 17 20 1024.6 1024.6 0.0
18/12:30pm 19.8 15.0 14.6 72 3.0 ESE 33 39 18 21 1025.0 1025.0 0.0
18/12:00pm 19.4 14.7 14.4 73 2.9 E 32 37 17 20 1025.4 1025.4 0.0
18/11:30am 18.6 13.9 14.4 76 2.4 E 32 37 17 20 1025.6 1025.6 0.0
18/11:00am 18.5 13.8 14.3 76 2.4 E 32 39 17 21 1025.6 1025.6 0.0
18/10:30am 18.1 13.9 14.6 80 2.0 E 30 35 16 19 1025.9 1025.9 0.0
18/10:00am 17.9 13.2 14.8 82 1.8 E 33 43 18 23 1025.8 1025.8 0.0
18/09:30am 18.6 13.3 15.2 80 2.0 E 37 43 20 23 1025.8 1025.8 0.0
18/09:00am 17.8 14.8 14.7 82 1.8 ENE 24 30 13 16 1025.6 1025.6 0.0
18/08:30am 16.3 13.2 14.4 88 1.1 ENE 24 33 13 18 1025.4 1025.4 0.0
18/08:00am 17.4 14.2 15.2 87 1.3 ESE 26 32 14 17 1024.8 1024.8 0.0
18/07:30am 17.2 14.5 15.5 90 1.0 ESE 24 30 13 16 1024.5 1024.5 0.0
18/07:00am 16.7 15.9 15.0 90 1.0 ESE 13 17 7 9 1024.4 1024.4 0.0
18/06:30am 16.6 15.1 13.2 80 1.9 ENE 13 15 7 8 1024.2 1024.2 0.0
18/06:00am 17.0 15.4 12.9 77 2.3 ENE 13 15 7 8 1024.1 1024.1 0.0
18/05:30am 16.9 15.3 12.7 76 2.3 ENE 13 15 7 8 1023.9 1023.9 0.0
18/05:00am 16.5 15.8 11.9 74 2.5 NNE 7 11 4 6 1023.7 1023.7 0.0
18/04:30am 16.9 15.4 11.9 72 2.7 NNE 11 13 6 7 1023.6 1023.6 0.0
18/04:00am 17.0 14.7 11.9 72 2.8 NNE 15 19 8 10 1023.4 1023.4 0.0
18/03:30am 17.0 15.6 12.3 74 2.6 NNE 11 17 6 9 1023.2 1023.2 0.0
18/03:00am 17.3 15.6 12.4 73 2.7 NE 13 15 7 8 1023.4 1023.4 0.0
18/02:30am 18.0 17.6 13.0 72 2.8 ENE 7 9 4 5 1023.6 1023.6 0.0
18/02:00am 17.8 16.9 12.6 71 2.9 NE 9 13 5 7 1023.5 1023.5 0.0
18/01:30am 18.4 16.8 12.7 69 3.2 ESE 13 17 7 9 1023.4 1023.4 0.0
18/01:00am 18.3 16.2 12.5 69 3.2 SE 15 19 8 10 1023.2 1023.2 0.0
18/12:30am 18.1 16.0 12.3 69 3.2 SSE 15 19 8 10 1023.2 1023.2 0.0
18/12:00am 18.4 16.0 11.4 63 3.8 SSE 15 19 8 10 1023.2 1023.2 0.0
 
Date/Time
WST
Temp
°C
App
Temp
°C
Dew
Point
Rel
Hum
%
Delta-T
°C
Wind Press
QNH
hPa
Press
MSL
hPa
Rain
since 9 am
mm
Dir
 
Spd
km/h
Gust
km/h
Spd
kts
Gust
kts
17/11:30pm 18.1 16.0 12.5 70 3.1 SSE 15 20 8 11 1023.3 1023.3 0.0
17/11:00pm 18.3 15.8 12.3 68 3.3 S 17 24 9 13 1023.5 1023.5 0.0
17/10:30pm 18.4 15.7 11.8 65 3.6 SSW 17 20 9 11 1023.5 1023.5 0.0
17/10:00pm 18.9 16.0 10.9 59 4.3 SW 17 20 9 11 1023.5 1023.5 0.0
17/09:30pm 18.8 17.3 13.1 69 3.2 SW 13 17 7 9 1023.6 1023.6 0.0
17/09:00pm 18.8 17.0 13.3 70 3.1 WSW 15 19 8 10 1023.5 1023.5 0.0
17/08:30pm 18.6 16.7 13.1 70 3.1 WSW 15 19 8 10 1023.4 1023.4 0.0
17/08:00pm 18.7 16.7 12.6 67 3.4 WSW 15 22 8 12 1023.4 1023.4 0.0
17/07:30pm 18.8 15.5 12.7 67 3.4 WSW 22 28 12 15 1023.3 1023.3 0.0
17/07:00pm 18.8 16.0 11.3 61 4.1 WSW 17 22 9 12 1023.2 1023.2 0.0
17/06:30pm 18.7 16.4 10.5 59 4.4 WSW 13 19 7 10 1023.1 1023.1 0.0
17/06:00pm 18.7 15.5 9.8 56 4.7 WSW 17 22 9 12 1022.9 1022.9 0.0
17/05:30pm 18.6 16.1 9.7 56 4.7 SW 13 17 7 9 1022.7 1022.7 0.0
17/05:00pm 19.0 14.6 9.0 52 5.2 WSW 22 28 12 15 1022.8 1022.8 0.0
17/04:30pm 19.1 14.5 11.0 59 4.4 SW 26 32 14 17 1022.8 1022.8 0.0
17/04:00pm 19.1 15.9 10.1 56 4.8 WSW 17 20 9 11 1022.9 1022.9 0.0
17/03:30pm 19.5 15.4 10.1 54 5.0 WSW 22 28 12 15 1023.0 1023.0 0.0
17/03:00pm 19.8 15.4 10.5 55 5.0 WSW 24 30 13 16 1022.9 1022.9 0.0
17/02:30pm 20.1 16.0 11.3 57 4.8 WSW 24 30 13 16 1023.0 1023.0 0.0
17/02:00pm 20.4 16.9 10.8 54 5.2 WSW 20 26 11 14 1023.0 1023.0 0.0
17/01:30pm 20.4 17.8 11.9 58 4.7 W 17 22 9 12 1023.1 1023.1 0.0
17/01:00pm 20.9 18.2 11.7 55 5.1 NW 17 22 9 12 1023.6 1023.6 0.0
17/12:30pm 20.2 17.8 11.5 57 4.8 NW 15 20 8 11 1024.1 1024.1 0.0
17/12:00pm 20.8 18.3 12.2 58 4.8 NW 17 20 9 11 1024.7 1024.7 0.0
17/11:30am 20.0 17.7 11.9 59 4.5 NW 15 17 8 9 1025.2 1025.2 0.0
17/11:00am 19.4 17.7 11.1 58 4.5 NW 11 13 6 7 1025.6 1025.6 0.0
17/10:30am 19.0 17.3 11.3 61 4.2 NW 11 13 6 7 1025.8 1025.8 0.0
17/10:00am 18.8 16.6 10.8 59 4.3 WNW 13 17 7 9 1026.1 1026.1 0.0
17/09:30am 18.5 17.5 10.4 59 4.3 NW 6 9 3 5 1026.4 1026.4 0.0
17/09:00am 18.2 16.1 9.8 58 4.4 NNE 11 15 6 8 1026.5 1026.5 0.0
17/08:30am 17.0 15.2 9.5 61 3.9 NNE 9 11 5 6 1026.6 1026.6 0.0
17/08:00am 16.0 13.4 9.4 65 3.4 NNE 13 15 7 8 1026.5 1026.5 0.0
17/07:30am 14.6 12.7 9.1 69 2.8 NE 9 13 5 7 1026.4 1026.4 0.0
17/07:00am 13.5 10.6 8.2 70 2.6 NNE 13 15 7 8 1026.5 1026.5 0.0
17/06:30am 13.6 11.6 8.6 72 2.5 NE 9 13 5 7 1026.6 1026.6 0.0
17/06:00am 14.0 12.0 8.6 70 2.7 ENE 9 17 5 9 1026.6 1026.6 0.0
17/05:30am 13.2 10.5 8.8 74 2.2 NE 13 20 7 11 1026.5 1026.5 0.0
17/05:00am 13.8 11.4 8.6 71 2.6 NE 11 17 6 9 1026.7 1026.7 0.0
17/04:30am 13.2 10.8 8.6 73 2.3 NNE 11 17 6 9 1026.8 1026.8 0.0
17/04:00am 13.9 11.5 8.7 71 2.6 ENE 11 15 6 8 1026.8 1026.8 0.0
17/03:30am 13.9 11.5 8.7 71 2.6 N 11 15 6 8 1027.2 1027.2 0.0
17/03:00am 13.5 11.7 9.3 76 2.1 N 9 15 5 8 1027.3 1027.3 0.0
17/02:30am 13.3 10.5 8.7 73 2.3 NNE 13 17 7 9 1027.4 1027.4 0.0
17/02:00am 13.7 10.6 8.9 73 2.4 NE 15 19 8 10 1027.8 1027.8 0.0
17/01:30am 14.0 11.4 9.5 74 2.3 NE 13 15 7 8 1028.1 1028.1 0.0
17/01:00am 13.8 11.2 9.5 75 2.2 NE 13 17 7 9 1028.1 1028.1 0.0
17/12:30am 14.1 12.1 10.2 77 2.0 NE 11 15 6 8 1028.1 1028.1 0.0
17/12:00am 14.3 12.0 10.5 78 2.0 NE 13 15 7 8 1028.3 1028.3 0.0
 
Date/Time
WST
Temp
°C
App
Temp
°C
Dew
Point
Rel
Hum
%
Delta-T
°C
Wind Press
QNH
hPa
Press
MSL
hPa
Rain
since 9 am
mm
Dir
 
Spd
km/h
Gust
km/h
Spd
kts
Gust
kts
16/11:30pm 14.9 13.6 11.1 78 2.0 NE 9 13 5 7 1028.6 1028.6 0.0
16/11:00pm 16.1 14.2 10.6 70 2.9 ENE 11 17 6 9 1028.7 1028.7 0.0
16/10:30pm 17.2 14.5 10.2 63 3.7 ESE 15 17 8 9 1028.9 1028.9 0.0
16/10:00pm 17.4 14.4 10.6 64 3.6 ESE 17 20 9 11 1029.0 1029.0 0.0
16/09:30pm 17.5 14.3 9.9 61 4.0 ESE 17 24 9 13 1029.1 1029.1 0.0
16/09:00pm 17.4 14.2 10.0 62 3.9 SE 17 24 9 13 1029.2 1029.2 0.0
16/08:30pm 17.4 13.9 10.2 62 3.8 SE 19 24 10 13 1029.2 1029.2 0.0
16/08:00pm 17.3 14.3 10.7 65 3.5 ESE 17 24 9 13 1029.0 1029.0 0.0
16/07:30pm 17.3 14.2 10.3 63 3.7 SE 17 22 9 12 1029.1 1029.1 0.0
16/07:00pm 17.2 13.9 10.8 66 3.4 SE 19 22 10 12 1029.0 1029.0 0.0
16/06:30pm 17.1 13.9 10.0 63 3.7 SE 17 22 9 12 1028.8 1028.8 0.0
16/06:00pm 17.1 14.3 11.3 68 3.1 SE 17 20 9 11 1028.8 1028.8 0.0
16/05:30pm 17.7 15.4 11.6 67 3.3 SE 15 20 8 11 1028.7 1028.7 0.0
16/05:00pm 18.2 15.2 10.5 60 4.1 SE 17 20 9 11 1029.0 1029.0 0.0
16/04:30pm 18.9 16.2 10.5 58 4.5 SSE 15 20 8 11 1029.3 1029.3 0.0
16/04:00pm 19.4 16.4 10.7 57 4.7 SSE 17 24 9 13 1029.5 1029.5 0.0
16/03:30pm 20.0 17.3 10.5 54 5.1 SSE 15 20 8 11 1029.8 1029.8 0.0
16/03:00pm 19.8 17.3 9.6 51 5.4 SSE 13 19 7 10 1030.0 1030.0 0.0
16/02:30pm 19.7 17.1 9.4 51 5.5 SE 13 19 7 10 1030.3 1030.3 0.0
16/02:00pm 20.0 17.4 9.4 50 5.6 SSE 13 17 7 9 1030.5 1030.5 0.0
16/01:30pm 20.0 17.5 9.6 51 5.5 ESE 13 17 7 9 1030.7 1030.7 0.0
16/01:00pm 19.2 16.7 8.3 49 5.6 ESE 11 15 6 8 1031.1 1031.1 0.0
16/12:30pm 19.4 17.3 8.1 48 5.8 E 9 11 5 6 1031.4 1031.4 0.0
16/12:00pm 19.1 16.9 7.9 48 5.7 E 9 11 5 6 1031.9 1031.9 0.0
16/11:30am 19.5 16.7 8.7 49 5.6 E 13 15 7 8 1032.0 1032.0 0.0
16/11:00am 18.9 16.0 8.1 49 5.5 NE 13 24 7 13 1032.1 1032.1 0.0

Other Formats:

Comma delimited format used in spreadsheet applications
http://www.bom.gov.au/fwo/IDW60801/IDW60801.94601.axf

JavaScript Object Notation format (JSON) in row-major order
http://www.bom.gov.au/fwo/IDW60801/IDW60801.94601.json